createdAt,value
2022-10-29T00:01:02.994Z,15.44
2022-10-29T00:03:31.036Z,15.36
2022-10-29T00:06:01.649Z,15.35
2022-10-29T00:08:32.119Z,15.43
2022-10-29T00:11:25.663Z,15.41
2022-10-29T00:13:55.912Z,15.43
2022-10-29T00:16:26.622Z,15.39
2022-10-29T00:18:55.013Z,15.44
2022-10-29T00:21:25.300Z,15.38
2022-10-29T00:23:53.473Z,15.22
2022-10-29T00:26:22.242Z,15.11
2022-10-29T00:28:55.083Z,15.17
2022-10-29T00:31:24.795Z,15.25
2022-10-29T00:33:54.886Z,15.21
2022-10-29T00:36:27.791Z,15.26
2022-10-29T00:38:59.414Z,15.24
2022-10-29T00:41:30.318Z,15.19
2022-10-29T00:44:22.263Z,15.20
2022-10-29T00:46:57.734Z,15.37
2022-10-29T00:49:27.689Z,15.29
2022-10-29T00:51:57.277Z,15.28
2022-10-29T00:54:24.882Z,15.27
2022-10-29T00:56:57.634Z,15.20
2022-10-29T00:59:26.056Z,15.18
2022-10-29T01:01:56.064Z,15.24
2022-10-29T01:04:24.923Z,15.27
2022-10-29T01:06:53.481Z,15.25
2022-10-29T01:09:21.603Z,15.32
2022-10-29T01:12:11.100Z,15.27
2022-10-29T01:14:44.698Z,15.22
2022-10-29T01:17:12.547Z,15.05
2022-10-29T01:20:17.625Z,14.90
2022-10-29T01:23:00.716Z,14.83
2022-10-29T01:25:52.766Z,14.80
2022-10-29T01:28:38.733Z,15.00
2022-10-29T01:31:15.433Z,15.01
2022-10-29T01:33:55.335Z,14.96
2022-10-29T01:36:47.233Z,15.00
2022-10-29T01:39:37.897Z,14.99
2022-10-29T01:42:38.792Z,15.01
2022-10-29T01:45:24.065Z,15.01
2022-10-29T01:47:59.607Z,15.05
2022-10-29T01:50:28.223Z,14.96
2022-10-29T01:52:56.032Z,14.92
2022-10-29T01:55:31.038Z,14.92
2022-10-29T01:57:59.828Z,14.90
2022-10-29T02:00:31.769Z,14.86
2022-10-29T02:03:18.321Z,14.81
2022-10-29T02:06:00.956Z,14.83
2022-10-29T02:08:31.025Z,14.79
2022-10-29T02:11:12.204Z,14.65
2022-10-29T02:14:02.297Z,14.63
2022-10-29T02:16:31.328Z,14.62
2022-10-29T02:19:00.614Z,14.69
2022-10-29T02:21:28.262Z,14.63
2022-10-29T02:23:55.772Z,14.62
2022-10-29T02:26:24.025Z,14.61
2022-10-29T02:28:51.964Z,14.62
2022-10-29T02:31:19.859Z,14.59
2022-10-29T02:33:47.492Z,14.61
2022-10-29T02:36:14.943Z,14.46
2022-10-29T02:38:42.582Z,14.45
2022-10-29T02:41:10.066Z,14.54
2022-10-29T02:43:37.662Z,14.56
2022-10-29T02:46:18.818Z,14.56
2022-10-29T02:48:46.639Z,14.68
2022-10-29T02:51:15.623Z,14.59
2022-10-29T02:53:43.644Z,14.59
2022-10-29T02:56:11.598Z,14.53
2022-10-29T02:58:39.808Z,14.38
2022-10-29T03:01:07.399Z,14.41
2022-10-29T03:03:35.259Z,14.43
2022-10-29T03:06:03.937Z,14.46
2022-10-29T03:08:31.639Z,14.39
2022-10-29T03:10:59.259Z,14.42
2022-10-29T03:13:26.868Z,14.36
2022-10-29T03:15:54.395Z,14.32
2022-10-29T03:18:21.974Z,14.34
2022-10-29T03:20:49.957Z,14.30
2022-10-29T03:23:18.378Z,14.37
2022-10-29T03:25:55.590Z,14.39
2022-10-29T03:28:25.729Z,14.41
2022-10-29T03:30:53.381Z,14.39
2022-10-29T03:33:21.406Z,14.37
2022-10-29T03:35:49.696Z,14.37
2022-10-29T03:38:17.609Z,14.24
2022-10-29T03:40:45.138Z,14.12
2022-10-29T03:43:12.683Z,14.15
2022-10-29T03:45:40.642Z,14.18
2022-10-29T03:48:08.287Z,14.16
2022-10-29T03:50:35.852Z,14.24
2022-10-29T03:53:03.423Z,14.17
2022-10-29T03:55:31.283Z,14.15
2022-10-29T03:57:59.653Z,13.99
2022-10-29T04:00:27.293Z,14.07
2022-10-29T04:02:55.508Z,14.09
2022-10-29T04:05:23.535Z,14.04
2022-10-29T04:07:51.023Z,13.99
2022-10-29T04:10:18.589Z,14.11
2022-10-29T04:12:47.133Z,14.09
2022-10-29T04:15:15.142Z,14.05
2022-10-29T04:17:42.655Z,14.01
2022-10-29T04:20:21.168Z,13.95
2022-10-29T04:28:49.097Z,14.00
2022-10-29T04:31:17.613Z,13.99
2022-10-29T04:33:46.254Z,14.02
2022-10-29T04:36:14.229Z,13.89
2022-10-29T04:38:42.545Z,13.91
2022-10-29T04:41:10.099Z,13.91
2022-10-29T04:43:37.643Z,13.98
2022-10-29T04:46:05.179Z,13.90
2022-10-29T04:48:32.648Z,13.96
2022-10-29T04:51:00.143Z,13.96
2022-10-29T04:53:27.735Z,13.87
2022-10-29T04:56:02.254Z,13.89
2022-10-29T04:58:29.914Z,13.87
2022-10-29T05:01:06.690Z,13.87
2022-10-29T05:03:34.597Z,13.92
2022-10-29T05:06:07.119Z,13.90
2022-10-29T05:08:35.033Z,14.04
2022-10-29T05:11:07.056Z,14.06
2022-10-29T05:13:34.947Z,13.91
2022-10-29T05:16:03.044Z,13.99
2022-10-29T05:18:31.086Z,13.93
2022-10-29T05:20:59.486Z,13.98
2022-10-29T05:23:27.447Z,13.99
2022-10-29T05:25:56.254Z,13.93
2022-10-29T05:28:24.173Z,13.86
2022-10-29T05:30:53.245Z,13.92
2022-10-29T05:33:23.284Z,13.92
2022-10-29T05:35:51.812Z,13.90
2022-10-29T05:38:20.608Z,13.88
2022-10-29T05:40:48.493Z,13.80
2022-10-29T05:43:17.210Z,13.86
2022-10-29T05:45:45.547Z,13.75
2022-10-29T05:50:45.998Z,13.33
2022-10-29T05:53:15.057Z,13.31
2022-10-29T05:55:43.000Z,13.32
2022-10-29T05:58:13.196Z,13.44
2022-10-29T06:00:43.945Z,13.44
2022-10-29T06:03:20.661Z,13.71
2022-10-29T06:05:49.860Z,13.76
2022-10-29T06:08:18.914Z,13.80
2022-10-29T06:10:46.946Z,13.92
2022-10-29T06:13:18.488Z,14.06
2022-10-29T06:15:47.392Z,14.02
2022-10-29T06:18:15.761Z,14.11
2022-10-29T06:20:44.118Z,14.13
2022-10-29T06:23:11.884Z,14.13
2022-10-29T06:25:39.488Z,14.17
2022-10-29T06:28:09.667Z,14.30
2022-10-29T06:30:37.682Z,14.42
2022-10-29T06:33:05.641Z,14.61
2022-10-29T06:38:07.772Z,14.71
2022-10-29T06:40:40.563Z,14.78
2022-10-29T06:43:12.041Z,14.98
2022-10-29T06:45:40.186Z,15.19
2022-10-29T06:48:07.791Z,15.36
2022-10-29T06:50:35.714Z,15.46
2022-10-29T06:53:09.895Z,15.54
2022-10-29T06:55:37.414Z,15.49
2022-10-29T06:58:14.171Z,15.43
2022-10-29T07:00:42.809Z,15.58
2022-10-29T07:03:17.155Z,15.61
2022-10-29T07:05:45.692Z,15.79
2022-10-29T07:08:13.904Z,15.92
2022-10-29T07:10:41.357Z,15.81
2022-10-29T07:13:10.167Z,15.80
2022-10-29T07:15:37.708Z,16.00
2022-10-29T07:18:06.952Z,16.10
2022-10-29T07:20:37.022Z,16.16
2022-10-29T07:23:04.620Z,16.26
2022-10-29T07:25:32.627Z,16.21
2022-10-29T07:28:18.367Z,16.24
2022-10-29T07:30:46.016Z,16.54
2022-10-29T07:33:14.719Z,16.60
2022-10-29T07:35:42.628Z,16.71
2022-10-29T07:38:12.569Z,16.84
2022-10-29T07:40:48.067Z,17.14
2022-10-29T07:43:17.377Z,17.23
2022-10-29T07:45:46.481Z,17.39
2022-10-29T07:48:14.003Z,17.58
2022-10-29T07:50:42.294Z,17.71
2022-10-29T07:53:10.591Z,18.02
2022-10-29T07:55:38.285Z,18.37
2022-10-29T07:58:10.851Z,18.32
2022-10-29T08:00:40.550Z,18.43
2022-10-29T08:03:10.612Z,18.55
2022-10-29T08:05:38.493Z,18.42
2022-10-29T08:08:06.859Z,18.47
2022-10-29T08:10:36.126Z,18.67
2022-10-29T08:13:05.591Z,18.71
2022-10-29T08:15:35.064Z,18.73
2022-10-29T08:18:04.901Z,18.53
2022-10-29T08:20:32.862Z,18.15
2022-10-29T08:23:01.249Z,18.44
2022-10-29T08:25:29.523Z,18.92
2022-10-29T08:28:05.287Z,19.09
2022-10-29T08:30:34.977Z,19.30
2022-10-29T08:33:04.691Z,19.66
2022-10-29T08:35:33.631Z,20.12
2022-10-29T08:38:01.213Z,20.39
2022-10-29T08:41:01.718Z,20.77
2022-10-29T08:43:43.257Z,21.98
2022-10-29T08:46:38.306Z,21.98
2022-10-29T08:49:23.672Z,22.15
2022-10-29T08:51:58.668Z,22.42
2022-10-29T08:54:32.333Z,22.70
2022-10-29T08:57:08.302Z,22.81
2022-10-29T08:59:45.173Z,23.56
2022-10-29T09:02:17.904Z,25.16
2022-10-29T09:04:46.141Z,25.78
2022-10-29T09:07:46.557Z,25.46
2022-10-29T09:10:32.215Z,25.86
2022-10-29T09:13:27.513Z,25.82
2022-10-29T09:16:10.316Z,26.09
2022-10-29T09:19:07.183Z,26.10
2022-10-29T09:21:51.818Z,26.48
2022-10-29T09:24:29.889Z,26.25
2022-10-29T09:27:08.218Z,26.36
2022-10-29T09:29:47.510Z,26.80
2022-10-29T09:32:28.616Z,28.22
2022-10-29T09:35:03.338Z,28.68
2022-10-29T09:37:39.788Z,28.43
2022-10-29T09:40:48.038Z,28.24
2022-10-29T09:43:42.587Z,28.48
2022-10-29T09:46:25.405Z,29.31
2022-10-29T09:49:01.469Z,29.21
2022-10-29T09:51:58.308Z,28.78
2022-10-29T09:54:29.153Z,28.55
2022-10-29T09:57:00.600Z,27.54
2022-10-29T09:59:44.710Z,27.72
2022-10-29T10:02:55.491Z,27.73
2022-10-29T10:05:27.529Z,27.58
2022-10-29T10:08:12.610Z,28.42
2022-10-29T10:10:51.905Z,28.63
2022-10-29T10:13:26.131Z,28.85
2022-10-29T10:15:57.774Z,28.33
2022-10-29T10:18:38.496Z,28.51
2022-10-29T10:21:14.736Z,29.02
2022-10-29T10:23:53.528Z,27.16
2022-10-29T10:26:33.978Z,27.35
2022-10-29T10:29:10.989Z,27.76
2022-10-29T10:31:40.084Z,27.38
2022-10-29T10:34:21.078Z,26.89
2022-10-29T10:36:53.046Z,26.69
2022-10-29T10:39:34.989Z,27.96
2022-10-29T10:42:15.708Z,28.72
2022-10-29T10:44:49.443Z,29.23
2022-10-29T10:47:20.666Z,26.81
2022-10-29T10:49:49.592Z,27.24
2022-10-29T10:52:19.756Z,27.65
2022-10-29T10:55:00.745Z,28.23
2022-10-29T10:57:54.146Z,27.19
2022-10-29T11:00:22.838Z,27.97
2022-10-29T11:03:08.940Z,28.53
2022-10-29T11:06:24.690Z,28.43
2022-10-29T11:09:06.968Z,28.11
2022-10-29T11:11:43.592Z,28.67
2022-10-29T11:14:30.678Z,28.90
2022-10-29T11:17:01.267Z,29.41
2022-10-29T11:19:36.888Z,29.15
2022-10-29T11:22:47.645Z,28.56
2022-10-29T11:25:22.352Z,28.63
2022-10-29T11:27:59.464Z,29.00
2022-10-29T11:30:31.289Z,29.07
2022-10-29T11:33:24.236Z,29.83
2022-10-29T11:36:07.395Z,28.75
2022-10-29T11:38:45.899Z,28.48
2022-10-29T11:41:37.037Z,29.75
2022-10-29T11:44:12.857Z,29.80
2022-10-29T11:47:08.324Z,29.53
2022-10-29T11:49:44.725Z,30.12
2022-10-29T11:52:15.453Z,30.00
2022-10-29T11:55:07.091Z,30.58
2022-10-29T11:58:05.020Z,30.85
2022-10-29T12:01:24.818Z,29.98
2022-10-29T12:03:58.404Z,29.83
2022-10-29T12:06:37.578Z,30.37
2022-10-29T12:09:33.856Z,30.28
2022-10-29T12:12:17.227Z,29.30
2022-10-29T12:14:49.703Z,29.05
2022-10-29T12:17:25.569Z,30.03
2022-10-29T12:20:25.161Z,30.74
2022-10-29T12:23:12.030Z,30.78
2022-10-29T12:25:51.830Z,28.85
2022-10-29T12:28:27.007Z,30.67
2022-10-29T12:31:03.089Z,30.95
2022-10-29T12:33:45.126Z,31.74
2022-10-29T12:36:28.721Z,31.56
2022-10-29T12:38:57.900Z,32.22
2022-10-29T12:41:34.692Z,31.83
2022-10-29T12:44:46.195Z,31.32
2022-10-29T12:47:16.939Z,31.96
2022-10-29T12:50:12.255Z,33.25
2022-10-29T12:53:28.641Z,33.55
2022-10-29T12:55:58.379Z,33.71
2022-10-29T12:58:52.812Z,33.87
2022-10-29T13:01:50.224Z,34.28
2022-10-29T13:04:34.269Z,34.34
2022-10-29T13:07:06.886Z,34.19
2022-10-29T13:09:36.504Z,33.99
2022-10-29T13:12:06.174Z,34.85
2022-10-29T13:14:37.610Z,34.20
2022-10-29T13:17:24.073Z,35.08
2022-10-29T13:20:06.535Z,35.95
2022-10-29T13:22:56.238Z,35.68
2022-10-29T13:25:42.362Z,35.71
2022-10-29T13:28:09.969Z,35.85
2022-10-29T13:30:42.400Z,36.62
2022-10-29T13:33:28.826Z,37.15
2022-10-29T13:36:25.712Z,37.80
2022-10-29T13:39:04.452Z,38.16
2022-10-29T13:41:45.039Z,38.78
2022-10-29T13:44:24.710Z,40.10
2022-10-29T13:46:57.410Z,40.57
2022-10-29T13:49:31.046Z,41.29
2022-10-29T13:52:03.004Z,40.51
2022-10-29T13:54:47.165Z,40.36
2022-10-29T13:57:21.887Z,39.82
2022-10-29T13:59:49.831Z,40.09
2022-10-29T14:02:44.688Z,39.64
2022-10-29T14:05:15.699Z,41.12
2022-10-29T14:08:28.432Z,41.48
2022-10-29T14:10:59.597Z,40.85
2022-10-29T14:13:31.980Z,41.39
2022-10-29T14:16:12.230Z,40.78
2022-10-29T14:18:47.420Z,41.61
2022-10-29T14:21:17.124Z,41.18
2022-10-29T14:24:20.555Z,40.44
2022-10-29T14:26:48.738Z,41.46
2022-10-29T14:29:22.161Z,40.95
2022-10-29T14:32:13.055Z,40.05
2022-10-29T14:34:42.689Z,40.80
2022-10-29T14:37:28.754Z,40.19
2022-10-29T14:40:02.323Z,39.61
2022-10-29T14:42:55.996Z,39.63
2022-10-29T14:45:28.606Z,39.22
2022-10-29T14:47:59.112Z,38.54
2022-10-29T14:50:29.342Z,38.78
2022-10-29T14:53:01.691Z,36.99
2022-10-29T14:55:42.058Z,35.99
2022-10-29T14:58:12.551Z,34.16
2022-10-29T15:00:54.753Z,32.42
2022-10-29T15:03:24.879Z,30.98
2022-10-29T15:05:52.719Z,30.17
2022-10-29T15:08:25.155Z,29.60
2022-10-29T15:10:56.680Z,29.12
2022-10-29T15:13:34.591Z,28.79
2022-10-29T15:16:20.501Z,28.28
2022-10-29T15:18:53.754Z,27.78
2022-10-29T15:21:27.101Z,27.32
2022-10-29T15:24:09.497Z,27.01
2022-10-29T15:26:47.633Z,26.81
2022-10-29T15:29:27.886Z,26.51
2022-10-29T15:31:58.623Z,26.23
2022-10-29T15:34:33.237Z,25.94
2022-10-29T15:37:23.778Z,25.85
2022-10-29T15:39:57.635Z,25.47
2022-10-29T15:42:28.268Z,25.21
2022-10-29T15:45:24.447Z,24.86
2022-10-29T15:48:36.254Z,24.62
2022-10-29T15:51:05.037Z,24.49
2022-10-29T15:53:33.610Z,24.39
2022-10-29T15:56:03.931Z,24.23
2022-10-29T15:58:33.246Z,23.95
2022-10-29T16:01:00.848Z,23.66
2022-10-29T16:03:28.618Z,23.53
2022-10-29T16:06:01.786Z,23.33
2022-10-29T16:08:33.541Z,23.16
2022-10-29T16:11:03.324Z,23.00
2022-10-29T16:13:32.879Z,22.81
2022-10-29T16:16:01.310Z,22.69
2022-10-29T16:18:29.358Z,22.57
2022-10-29T16:21:04.798Z,22.46
2022-10-29T16:23:37.395Z,22.33
2022-10-29T16:26:05.516Z,22.20
2022-10-29T16:28:33.018Z,22.06
2022-10-29T16:31:00.691Z,22.13
2022-10-29T16:33:28.853Z,22.25
2022-10-29T16:35:56.445Z,21.98
2022-10-29T16:38:23.971Z,21.83
2022-10-29T16:40:51.628Z,21.66
2022-10-29T16:43:19.141Z,21.69
2022-10-29T16:45:46.797Z,21.59
2022-10-29T16:48:14.395Z,21.46
2022-10-29T16:50:41.913Z,21.39
2022-10-29T16:53:12.895Z,21.23
2022-10-29T16:55:41.570Z,21.11
2022-10-29T16:58:12.444Z,21.01
2022-10-29T17:00:40.217Z,21.07
2022-10-29T17:03:12.408Z,21.02
2022-10-29T17:05:45.658Z,20.87
2022-10-29T17:08:13.759Z,20.86
2022-10-29T17:10:41.403Z,20.81
2022-10-29T17:13:11.771Z,20.93
2022-10-29T17:15:42.690Z,20.78
2022-10-29T17:18:10.768Z,20.72
2022-10-29T17:20:38.255Z,20.59
2022-10-29T17:23:05.785Z,20.48
2022-10-29T17:25:33.414Z,20.39
2022-10-29T17:28:02.171Z,20.33
2022-10-29T17:30:29.557Z,20.29
2022-10-29T17:32:57.276Z,20.28
2022-10-29T17:35:25.087Z,20.16
2022-10-29T17:37:52.707Z,20.11
2022-10-29T17:40:20.425Z,20.17
2022-10-29T17:42:48.395Z,20.14
2022-10-29T17:45:20.547Z,20.05
2022-10-29T17:47:48.473Z,20.32
2022-10-29T17:50:16.246Z,20.18
2022-10-29T17:52:43.792Z,20.04
2022-10-29T17:55:11.360Z,19.96
2022-10-29T17:57:39.254Z,19.89
2022-10-29T18:00:07.498Z,19.82
2022-10-29T18:02:35.079Z,19.75
2022-10-29T18:05:03.158Z,19.76
2022-10-29T18:07:31.110Z,19.74
2022-10-29T18:09:58.756Z,19.67
2022-10-29T18:12:26.308Z,19.88
2022-10-29T18:14:53.819Z,19.79
2022-10-29T18:17:21.390Z,19.66
2022-10-29T18:19:49.414Z,19.62
2022-10-29T18:22:17.011Z,19.39
2022-10-29T18:24:44.649Z,19.42
2022-10-29T18:27:12.593Z,19.34
2022-10-29T18:29:40.122Z,19.28
2022-10-29T18:32:07.690Z,19.14
2022-10-29T18:34:36.433Z,19.11
2022-10-29T18:37:04.085Z,19.06
2022-10-29T18:39:31.750Z,19.02
2022-10-29T18:41:59.642Z,18.94
2022-10-29T18:44:27.233Z,18.96
2022-10-29T18:46:55.240Z,18.84
2022-10-29T18:49:23.432Z,18.84
2022-10-29T18:51:53.719Z,18.82
2022-10-29T18:54:21.533Z,18.88
2022-10-29T18:56:49.105Z,18.88
2022-10-29T18:59:17.102Z,18.75
2022-10-29T19:01:44.667Z,18.71
2022-10-29T19:04:15.811Z,18.69
2022-10-29T19:06:43.821Z,18.63
2022-10-29T19:09:12.265Z,18.58
2022-10-29T19:11:40.701Z,18.61
2022-10-29T19:14:13.013Z,18.72
2022-10-29T19:16:40.719Z,18.61
2022-10-29T19:19:11.986Z,18.52
2022-10-29T19:21:40.502Z,18.46
2022-10-29T19:24:08.714Z,18.45
2022-10-29T19:26:36.885Z,18.58
2022-10-29T19:29:05.919Z,18.46
2022-10-29T19:31:35.674Z,18.33
2022-10-29T19:34:06.381Z,18.30
2022-10-29T19:36:36.531Z,18.30
2022-10-29T19:39:05.086Z,18.31
2022-10-29T19:41:33.428Z,18.31
2022-10-29T19:44:02.637Z,18.23
2022-10-29T19:46:30.644Z,18.20
2022-10-29T19:48:59.375Z,18.19
2022-10-29T19:51:27.107Z,18.31
2022-10-29T19:53:57.755Z,18.25
2022-10-29T19:56:25.690Z,18.16
2022-10-29T19:58:53.237Z,18.08
2022-10-29T20:01:20.773Z,17.97
2022-10-29T20:03:48.597Z,17.99
2022-10-29T20:06:17.996Z,17.88
2022-10-29T20:08:45.744Z,17.93
2022-10-29T20:11:13.728Z,18.11
2022-10-29T20:13:42.057Z,18.10
2022-10-29T20:16:18.926Z,17.97
2022-10-29T20:18:47.251Z,17.86
2022-10-29T20:21:15.590Z,18.05
2022-10-29T20:23:44.759Z,17.99
2022-10-29T20:26:12.801Z,18.04
2022-10-29T20:28:40.275Z,18.02
2022-10-29T20:31:18.473Z,17.96
2022-10-29T20:33:59.189Z,18.02
2022-10-29T20:36:32.382Z,17.78
2022-10-29T20:39:00.224Z,17.66
2022-10-29T20:41:29.006Z,17.57
2022-10-29T20:43:59.767Z,17.49
2022-10-29T20:46:28.015Z,17.47
2022-10-29T20:48:55.786Z,17.46
2022-10-29T20:51:25.019Z,17.64
2022-10-29T20:53:54.375Z,17.64
2022-10-29T20:56:24.938Z,17.55
2022-10-29T20:58:53.356Z,17.45
2022-10-29T21:01:23.017Z,17.38
2022-10-29T21:03:51.130Z,17.29
2022-10-29T21:06:19.733Z,17.17
2022-10-29T21:08:48.838Z,17.16
2022-10-29T21:11:17.830Z,17.15
2022-10-29T21:13:46.500Z,17.21
2022-10-29T21:16:22.358Z,17.12
2022-10-29T21:18:53.140Z,17.08
2022-10-29T21:21:20.718Z,17.23
2022-10-29T21:23:48.682Z,17.22
2022-10-29T21:26:21.810Z,17.17
2022-10-29T21:28:50.501Z,17.14
2022-10-29T21:31:18.990Z,17.23
2022-10-29T21:33:50.491Z,17.21
2022-10-29T21:36:18.845Z,17.08
2022-10-29T21:38:48.167Z,17.06
2022-10-29T21:41:16.758Z,17.03
2022-10-29T21:43:44.841Z,17.00
2022-10-29T21:46:12.600Z,17.09
2022-10-29T21:48:40.190Z,17.04
2022-10-29T21:51:10.835Z,17.02
2022-10-29T21:53:38.695Z,16.93
2022-10-29T21:56:08.558Z,16.92
2022-10-29T21:58:36.567Z,16.91
2022-10-29T22:01:09.709Z,16.95
2022-10-29T22:03:40.703Z,16.91
2022-10-29T22:06:22.709Z,16.84
2022-10-29T22:08:58.174Z,16.85
2022-10-29T22:11:27.566Z,17.03
2022-10-29T22:13:56.122Z,17.21
2022-10-29T22:16:23.766Z,17.09
2022-10-29T22:18:51.313Z,16.87
2022-10-29T22:21:22.378Z,16.67
2022-10-29T22:23:52.394Z,16.62
2022-10-29T22:26:22.744Z,16.68
2022-10-29T22:28:50.707Z,16.58
2022-10-29T22:31:20.271Z,16.43
2022-10-29T22:33:48.536Z,16.45
2022-10-29T22:36:19.470Z,16.42
2022-10-29T22:38:52.737Z,16.49
2022-10-29T22:41:20.425Z,16.42
2022-10-29T22:43:48.277Z,16.44
2022-10-29T22:46:17.433Z,16.41
2022-10-29T22:48:45.161Z,16.39
2022-10-29T22:51:18.759Z,16.34
2022-10-29T22:53:46.908Z,16.29
2022-10-29T22:56:16.686Z,16.27
2022-10-29T22:58:45.312Z,16.21
2022-10-29T23:01:16.537Z,16.31
2022-10-29T23:03:45.254Z,16.14
2022-10-29T23:06:17.837Z,16.13
2022-10-29T23:08:46.516Z,16.14
2022-10-29T23:11:20.823Z,16.16
2022-10-29T23:13:50.555Z,16.14
2022-10-29T23:16:19.111Z,16.07
2022-10-29T23:18:55.695Z,16.22
2022-10-29T23:21:23.406Z,16.30
2022-10-29T23:23:51.553Z,16.21
2022-10-29T23:26:20.767Z,16.16
2022-10-29T23:28:49.247Z,16.05
2022-10-29T23:31:19.550Z,15.98
2022-10-29T23:33:49.414Z,15.94
2022-10-29T23:36:18.661Z,15.95
2022-10-29T23:38:46.427Z,16.09
2022-10-29T23:41:14.874Z,15.98
2022-10-29T23:43:42.672Z,15.84
2022-10-29T23:46:10.823Z,15.72
2022-10-29T23:48:38.359Z,15.64
2022-10-29T23:51:05.993Z,15.65
2022-10-29T23:53:33.547Z,15.57
2022-10-29T23:56:01.011Z,15.51
2022-10-29T23:58:28.662Z,15.55
